createdAt,value
2023-01-10T00:00:42.712Z,6.03
2023-01-10T00:03:10.888Z,6.04
2023-01-10T00:05:38.604Z,6.05
2023-01-10T00:08:06.429Z,6.05
2023-01-10T00:10:33.425Z,6.04
2023-01-10T00:13:19.341Z,6.01
2023-01-10T00:15:46.245Z,5.98
2023-01-10T00:18:13.033Z,5.96
2023-01-10T00:20:39.735Z,5.94
2023-01-10T00:23:06.945Z,5.94
2023-01-10T00:25:36.212Z,5.91
2023-01-10T00:28:21.854Z,5.87
2023-01-10T00:30:55.043Z,5.80
2023-01-10T00:33:22.409Z,5.77
2023-01-10T00:35:49.345Z,5.75
2023-01-10T00:38:17.021Z,5.75
2023-01-10T00:40:43.826Z,5.76
2023-01-10T00:43:29.434Z,5.73
2023-01-10T00:45:57.854Z,5.74
2023-01-10T00:48:24.777Z,5.80
2023-01-10T00:50:51.885Z,5.82
2023-01-10T00:53:18.570Z,5.80
2023-01-10T00:55:45.569Z,5.78
2023-01-10T00:58:13.380Z,5.78
2023-01-10T01:00:40.497Z,5.78
2023-01-10T01:03:08.746Z,5.79
2023-01-10T01:05:45.373Z,5.79
2023-01-10T01:08:12.717Z,5.85
2023-01-10T01:10:39.505Z,5.88
2023-01-10T01:13:08.482Z,5.88
2023-01-10T01:15:35.700Z,5.86
2023-01-10T01:18:03.057Z,5.85
2023-01-10T01:20:29.860Z,5.84
2023-01-10T01:22:56.796Z,5.84
2023-01-10T01:25:23.803Z,5.83
2023-01-10T01:27:50.691Z,5.84
2023-01-10T01:30:17.617Z,5.84
2023-01-10T01:32:44.515Z,5.83
2023-01-10T01:35:12.825Z,5.81
2023-01-10T01:37:39.643Z,5.76
2023-01-10T01:40:07.605Z,5.74
2023-01-10T01:42:35.250Z,5.73
2023-01-10T01:45:14.134Z,5.78
2023-01-10T01:48:26.222Z,5.86
2023-01-10T01:51:07.859Z,5.84
2023-01-10T01:53:36.967Z,5.74
2023-01-10T01:56:16.931Z,5.70
2023-01-10T01:58:56.523Z,5.69
2023-01-10T02:01:23.456Z,5.72
2023-01-10T02:03:54.112Z,5.75
2023-01-10T02:06:21.171Z,5.79
2023-01-10T02:08:55.579Z,5.77
2023-01-10T02:11:22.378Z,5.76
2023-01-10T02:13:49.667Z,5.74
2023-01-10T02:16:16.670Z,5.72
2023-01-10T02:18:43.604Z,5.69
2023-01-10T02:21:18.396Z,5.64
2023-01-10T02:24:20.118Z,5.54
2023-01-10T02:27:05.836Z,5.48
2023-01-10T02:30:14.609Z,5.45
2023-01-10T02:32:56.960Z,5.45
2023-01-10T02:35:55.186Z,5.46
2023-01-10T02:38:58.882Z,5.47
2023-01-10T02:41:46.837Z,5.45
2023-01-10T02:44:43.350Z,5.47
2023-01-10T02:47:10.113Z,5.51
2023-01-10T02:49:49.962Z,5.54
2023-01-10T02:52:23.089Z,5.54
2023-01-10T02:54:51.575Z,5.53
2023-01-10T02:57:27.607Z,5.55
2023-01-10T03:00:16.294Z,5.53
2023-01-10T03:03:02.151Z,5.52
2023-01-10T03:05:35.125Z,5.52
2023-01-10T03:08:25.639Z,5.51
2023-01-10T03:11:02.997Z,5.49
2023-01-10T03:13:34.902Z,5.52
2023-01-10T03:16:02.384Z,5.55
2023-01-10T03:18:41.573Z,5.55
2023-01-10T03:21:08.532Z,5.54
2023-01-10T03:23:35.471Z,5.57
2023-01-10T03:26:02.990Z,5.61
2023-01-10T03:28:32.455Z,5.65
2023-01-10T03:31:05.422Z,5.67
2023-01-10T03:33:33.077Z,5.67
2023-01-10T03:36:01.068Z,5.66
2023-01-10T03:38:32.913Z,5.66
2023-01-10T03:41:04.690Z,5.65
2023-01-10T03:44:06.284Z,5.63
2023-01-10T03:46:37.931Z,5.64
2023-01-10T03:49:05.583Z,5.70
2023-01-10T03:51:32.833Z,5.73
2023-01-10T03:54:01.064Z,5.73
2023-01-10T03:56:27.960Z,5.71
2023-01-10T03:58:54.877Z,5.69
2023-01-10T04:01:21.996Z,5.71
2023-01-10T04:03:48.940Z,5.73
2023-01-10T04:06:17.733Z,5.74
2023-01-10T04:08:44.735Z,5.76
2023-01-10T04:11:11.556Z,5.75
2023-01-10T04:13:42.081Z,5.75
2023-01-10T04:16:09.465Z,5.69
2023-01-10T04:18:36.298Z,5.64
2023-01-10T04:21:03.134Z,5.63
2023-01-10T04:23:29.941Z,5.64
2023-01-10T04:25:56.738Z,5.65
2023-01-10T04:28:24.651Z,5.67
2023-01-10T04:30:51.674Z,5.68
2023-01-10T04:33:18.469Z,5.67
2023-01-10T04:35:49.370Z,5.67
2023-01-10T04:38:16.485Z,5.66
2023-01-10T04:40:43.387Z,5.64
2023-01-10T04:43:11.009Z,5.60
2023-01-10T04:45:38.010Z,5.61
2023-01-10T04:48:04.993Z,5.62
2023-01-10T04:50:32.028Z,5.62
2023-01-10T04:52:58.727Z,5.63
2023-01-10T04:55:25.415Z,5.65
2023-01-10T04:57:52.327Z,5.64
2023-01-10T05:00:19.779Z,5.63
2023-01-10T05:02:46.734Z,5.61
2023-01-10T05:05:14.246Z,5.61
2023-01-10T05:07:41.175Z,5.63
2023-01-10T05:10:08.831Z,5.64
2023-01-10T05:12:35.885Z,5.61
2023-01-10T05:15:02.754Z,5.57
2023-01-10T05:17:29.607Z,5.59
2023-01-10T05:19:56.444Z,5.63
2023-01-10T05:22:23.369Z,5.67
2023-01-10T05:24:50.519Z,5.68
2023-01-10T05:27:17.320Z,5.72
2023-01-10T05:29:44.223Z,5.74
2023-01-10T05:32:11.126Z,5.74
2023-01-10T05:34:38.009Z,5.74
2023-01-10T05:37:04.843Z,5.73
2023-01-10T05:39:31.628Z,5.72
2023-01-10T05:41:58.429Z,5.72
2023-01-10T05:44:25.380Z,5.74
2023-01-10T05:46:52.123Z,5.74
2023-01-10T05:49:18.858Z,5.73
2023-01-10T05:51:46.024Z,5.79
2023-01-10T05:54:12.955Z,5.79
2023-01-10T05:56:39.744Z,5.77
2023-01-10T05:59:11.826Z,5.74
2023-01-10T07:15:11.677Z,5.12
2023-01-10T07:17:39.201Z,5.24
2023-01-10T07:20:06.265Z,5.32
2023-01-10T07:22:33.837Z,5.35
2023-01-10T07:25:00.759Z,5.44
2023-01-10T07:27:30.277Z,5.48
2023-01-10T07:29:58.047Z,5.52
2023-01-10T07:32:25.456Z,5.57
2023-01-10T07:34:53.233Z,5.62
2023-01-10T07:37:20.155Z,5.70
2023-01-10T07:39:51.015Z,5.76
2023-01-10T07:42:34.813Z,5.79
2023-01-10T07:45:06.650Z,5.81
2023-01-10T07:47:33.485Z,5.80
2023-01-10T07:50:01.545Z,5.71
2023-01-10T07:52:28.595Z,5.72
2023-01-10T07:54:55.355Z,5.71
2023-01-10T07:57:22.481Z,5.70
2023-01-10T07:59:49.526Z,5.70
2023-01-10T08:02:16.385Z,5.72
2023-01-10T08:04:43.746Z,5.75
2023-01-10T08:07:11.080Z,5.77
2023-01-10T08:09:37.727Z,5.81
2023-01-10T08:12:04.559Z,5.88
2023-01-10T08:14:34.211Z,5.96
2023-01-10T08:17:01.151Z,6.02
2023-01-10T08:19:28.067Z,6.09
2023-01-10T08:22:09.739Z,6.14
2023-01-10T08:24:36.643Z,6.23
2023-01-10T08:27:04.002Z,6.29
2023-01-10T08:29:31.018Z,6.38
2023-01-10T08:31:59.020Z,6.45
2023-01-10T08:34:27.213Z,6.53
2023-01-10T08:36:54.263Z,6.58
2023-01-10T08:39:21.868Z,6.64
2023-01-10T08:41:48.760Z,6.68
2023-01-10T08:44:15.525Z,6.73
2023-01-10T08:46:42.605Z,6.80
2023-01-10T08:49:09.378Z,6.87
2023-01-10T08:51:36.430Z,6.93
2023-01-10T08:54:03.209Z,7.00
2023-01-10T08:56:30.339Z,7.09
2023-01-10T08:59:03.154Z,7.16
2023-01-10T09:01:30.840Z,7.23
2023-01-10T09:04:05.184Z,7.30
2023-01-10T09:06:48.435Z,7.35
2023-01-10T09:09:27.268Z,7.43
2023-01-10T09:12:29.932Z,7.45
2023-01-10T09:14:57.887Z,7.46
2023-01-10T09:17:33.745Z,7.45
2023-01-10T09:20:16.215Z,7.52
2023-01-10T09:22:51.933Z,7.57
2023-01-10T09:25:21.991Z,7.62
2023-01-10T09:28:04.135Z,7.67
2023-01-10T09:30:43.898Z,7.72
2023-01-10T09:33:11.387Z,7.76
2023-01-10T09:35:53.147Z,7.80
2023-01-10T09:38:29.767Z,7.88
2023-01-10T09:41:30.865Z,7.94
2023-01-10T09:44:26.083Z,8.01
2023-01-10T09:47:28.690Z,8.06
2023-01-10T09:50:21.634Z,8.09
2023-01-10T09:53:31.276Z,8.10
2023-01-10T09:57:13.831Z,8.18
2023-01-10T10:04:07.045Z,8.22
2023-01-10T10:08:01.497Z,8.22
2023-01-10T10:10:49.730Z,8.21
2023-01-10T10:14:20.000Z,8.13
2023-01-10T10:18:12.482Z,8.05
2023-01-10T10:21:10.487Z,8.05
2023-01-10T10:24:28.327Z,8.16
2023-01-10T10:28:03.329Z,8.35
2023-01-10T10:31:17.432Z,8.51
2023-01-10T10:34:11.871Z,8.54
2023-01-10T10:37:25.287Z,8.53
2023-01-10T10:43:36.377Z,8.43
2023-01-10T10:46:24.388Z,8.36
2023-01-10T10:49:46.913Z,8.34
2023-01-10T10:52:39.122Z,8.37
2023-01-10T10:55:54.971Z,8.37
2023-01-10T10:58:38.856Z,8.32
2023-01-10T11:05:48.622Z,8.32
2023-01-10T11:08:55.930Z,8.30
2023-01-10T11:15:42.740Z,8.33
2023-01-10T11:23:23.942Z,8.20
2023-01-10T11:27:16.895Z,8.14
2023-01-10T11:30:42.150Z,8.14
2023-01-10T11:34:04.819Z,8.19
2023-01-10T11:37:09.210Z,8.19
2023-01-10T11:42:41.467Z,8.16
2023-01-10T11:45:26.173Z,8.18
2023-01-10T11:48:07.731Z,8.17
2023-01-10T11:50:53.562Z,8.14
2023-01-10T11:53:42.240Z,8.06
2023-01-10T11:56:36.539Z,7.99
2023-01-10T12:00:06.895Z,7.97
2023-01-10T12:03:04.666Z,7.98
2023-01-10T12:06:14.081Z,7.99
2023-01-10T12:12:11.158Z,8.09
2023-01-10T12:14:48.735Z,8.16
2023-01-10T12:17:52.947Z,8.23
2023-01-10T12:20:50.114Z,8.28
2023-01-10T12:23:44.695Z,8.31
2023-01-10T12:27:10.815Z,8.33
2023-01-10T12:30:13.959Z,8.35
2023-01-10T12:32:56.732Z,8.36
2023-01-10T12:35:58.148Z,8.37
2023-01-10T12:39:09.983Z,8.35
2023-01-10T12:42:19.288Z,8.26
2023-01-10T12:45:32.483Z,8.17
2023-01-10T12:48:19.348Z,8.15
2023-01-10T12:51:18.163Z,8.18
2023-01-10T12:54:06.561Z,8.19
2023-01-10T12:56:45.060Z,8.20
2023-01-10T19:11:30.757Z,6.13
2023-01-10T19:13:59.561Z,6.24
2023-01-10T19:16:31.769Z,6.33
2023-01-10T19:19:02.529Z,6.40
2023-01-10T19:21:31.114Z,6.45
2023-01-10T19:24:02.570Z,6.52
2023-01-10T19:26:36.906Z,6.56
2023-01-10T19:29:08.365Z,6.62
2023-01-10T19:31:38.488Z,6.65
2023-01-10T19:34:10.070Z,6.72
2023-01-10T19:36:39.048Z,6.77
2023-01-10T19:39:06.756Z,6.83
2023-01-10T19:41:35.963Z,6.87
2023-01-10T19:44:09.146Z,6.92
2023-01-10T19:46:38.709Z,7.06
2023-01-10T19:49:10.143Z,7.00
2023-01-10T19:51:40.846Z,7.03
2023-01-10T19:54:08.624Z,7.09
2023-01-10T19:56:36.727Z,7.06
2023-01-10T19:59:07.325Z,7.02
2023-01-10T20:01:34.636Z,7.09
2023-01-10T20:04:12.088Z,7.01
2023-01-10T20:06:40.045Z,7.02
2023-01-10T20:09:07.804Z,7.09
2023-01-10T20:11:37.619Z,7.06
2023-01-10T20:14:12.840Z,7.04
2023-01-10T20:16:42.432Z,7.01
2023-01-10T20:19:12.281Z,7.01
2023-01-10T20:21:45.891Z,6.96
2023-01-10T20:24:18.869Z,7.02
2023-01-10T20:26:47.226Z,7.03
2023-01-10T20:29:14.618Z,7.04
2023-01-10T20:31:42.793Z,6.98
2023-01-10T20:34:11.989Z,7.00
2023-01-10T20:36:39.142Z,6.99
2023-01-10T20:39:06.438Z,7.01
2023-01-10T20:41:33.480Z,7.04
2023-01-10T20:44:00.476Z,7.00
2023-01-10T20:46:32.169Z,6.97
2023-01-10T20:49:02.164Z,6.98
2023-01-10T20:51:31.692Z,7.02
2023-01-10T20:54:01.789Z,7.04
2023-01-10T20:56:30.087Z,7.01
2023-01-10T20:58:57.781Z,7.01
2023-01-10T21:01:34.309Z,7.04
2023-01-10T21:04:04.161Z,7.03
2023-01-10T21:06:31.240Z,7.05
2023-01-10T21:08:59.968Z,7.01
2023-01-10T21:11:26.916Z,7.02
2023-01-10T21:13:54.310Z,6.98
2023-01-10T21:16:21.780Z,7.04
2023-01-10T21:18:52.162Z,7.04
2023-01-10T21:21:24.069Z,7.12
2023-01-10T21:23:52.684Z,7.07
2023-01-10T21:26:21.618Z,7.08
2023-01-10T21:28:48.696Z,7.06
2023-01-10T21:31:22.659Z,7.05
2023-01-10T21:33:49.716Z,7.06
2023-01-10T21:36:19.017Z,7.08
2023-01-10T21:38:52.633Z,7.07
2023-01-10T21:41:39.966Z,7.04
2023-01-10T21:44:07.175Z,7.04
2023-01-10T21:46:34.200Z,7.04
2023-01-10T21:49:03.692Z,7.04
2023-01-10T21:51:30.441Z,7.05
2023-01-10T21:53:58.681Z,7.15
2023-01-10T21:56:25.621Z,7.10
2023-01-10T21:58:52.490Z,7.08
2023-01-10T22:01:19.374Z,7.10
2023-01-10T22:03:49.309Z,7.11
2023-01-10T22:06:16.259Z,7.08
2023-01-10T22:08:43.224Z,7.09
2023-01-10T22:11:11.036Z,7.07
2023-01-10T22:13:38.695Z,7.06
2023-01-10T22:16:06.549Z,7.07
2023-01-10T22:18:33.468Z,7.13
2023-01-10T22:21:00.421Z,7.14
2023-01-10T22:23:28.293Z,7.17
2023-01-10T22:26:02.529Z,7.07
2023-01-10T22:28:30.283Z,7.06
2023-01-10T22:30:57.419Z,7.11
2023-01-10T22:33:27.648Z,7.02
2023-01-10T22:35:54.319Z,7.02
2023-01-10T22:38:21.141Z,6.99
2023-01-10T22:40:47.943Z,6.99
2023-01-10T22:43:15.440Z,7.00
2023-01-10T22:45:42.505Z,6.96
2023-01-10T22:48:09.564Z,6.93
2023-01-10T22:50:38.951Z,6.93
2023-01-10T22:53:05.532Z,6.99
2023-01-10T22:55:33.393Z,6.94
2023-01-10T22:58:00.141Z,7.00
2023-01-10T23:00:26.942Z,6.92
2023-01-10T23:02:53.610Z,6.92
2023-01-10T23:05:20.258Z,6.93
2023-01-10T23:07:46.908Z,6.93
2023-01-10T23:10:28.864Z,6.92
2023-01-10T23:12:57.243Z,6.95
2023-01-10T23:15:25.962Z,6.95
2023-01-10T23:17:52.898Z,6.95
2023-01-10T23:20:19.819Z,6.92
2023-01-10T23:22:46.495Z,6.90
2023-01-10T23:25:13.202Z,6.88
2023-01-10T23:27:39.985Z,6.87
2023-01-10T23:30:08.790Z,6.85
2023-01-10T23:32:37.655Z,6.85
2023-01-10T23:42:42.737Z,6.79
2023-01-10T23:45:10.057Z,6.78
2023-01-10T23:47:36.865Z,6.79
2023-01-10T23:50:04.489Z,6.76
2023-01-10T23:52:31.384Z,6.74
2023-01-10T23:54:58.278Z,6.72
2023-01-10T23:57:24.968Z,6.70
2023-01-10T23:59:51.775Z,6.69
